createdAt,value
2023-03-06T00:03:57.784Z,3.05
2023-03-06T00:09:18.508Z,2.90
2023-03-06T00:14:39.254Z,2.60
2023-03-06T00:19:59.974Z,2.67
2023-03-06T00:25:21.959Z,3.20
2023-03-06T00:30:43.549Z,2.95
2023-03-06T00:36:05.991Z,2.55
2023-03-06T00:41:27.315Z,2.67
2023-03-06T00:46:48.125Z,1.95
2023-03-06T00:52:08.959Z,2.55
2023-03-06T00:57:29.857Z,3.45
2023-03-06T01:02:53.654Z,2.30
2023-03-06T01:08:16.158Z,2.50
2023-03-06T01:13:36.783Z,3.25
2023-03-06T01:18:57.555Z,2.78
2023-03-06T01:24:18.265Z,2.90
2023-03-06T01:29:39.106Z,3.08
2023-03-06T01:34:59.701Z,2.90
2023-03-06T01:40:20.779Z,2.45
2023-03-06T01:45:41.688Z,3.03
2023-03-06T01:51:02.460Z,3.25
2023-03-06T01:56:24.033Z,3.20
2023-03-06T02:01:46.758Z,2.75
2023-03-06T02:07:09.297Z,2.92
2023-03-06T02:12:30.407Z,2.80
2023-03-06T02:17:52.461Z,3.28
2023-03-06T02:23:21.375Z,2.90
2023-03-06T02:28:42.102Z,3.15
2023-03-06T02:34:07.599Z,3.80
2023-03-06T02:39:31.270Z,3.17
2023-03-06T02:44:54.285Z,3.20
2023-03-06T02:50:14.957Z,3.22
2023-03-06T02:55:36.378Z,3.05
2023-03-06T03:00:57.543Z,3.33
2023-03-06T03:06:18.867Z,3.83
2023-03-06T03:11:40.679Z,2.83
2023-03-06T03:17:01.597Z,3.28
2023-03-06T03:22:22.744Z,3.95
2023-03-06T03:27:44.613Z,3.05
2023-03-06T03:33:06.364Z,3.55
2023-03-06T03:38:27.871Z,3.25
2023-03-06T03:43:49.440Z,3.97
2023-03-06T03:49:10.153Z,3.17
2023-03-06T03:54:31.863Z,4.10
2023-03-06T03:59:53.210Z,3.47
2023-03-06T04:05:19.278Z,3.60
2023-03-06T04:10:42.115Z,4.30
2023-03-06T04:16:04.654Z,4.20
2023-03-06T04:21:27.862Z,3.70
2023-03-06T04:26:49.266Z,3.25
2023-03-06T04:32:10.217Z,3.55
2023-03-06T04:37:31.489Z,4.00
2023-03-06T04:42:54.558Z,3.60
2023-03-06T04:48:17.975Z,3.70
2023-03-06T04:53:38.671Z,4.07
2023-03-06T04:58:59.491Z,3.75
2023-03-06T05:04:20.164Z,3.65
2023-03-06T05:09:40.848Z,3.85
2023-03-06T05:15:01.311Z,3.97
2023-03-06T05:20:22.390Z,4.32
2023-03-06T05:25:43.351Z,3.88
2023-03-06T05:31:05.271Z,4.40
2023-03-06T05:36:25.979Z,4.05
2023-03-06T05:41:46.547Z,3.67
2023-03-06T05:47:08.404Z,3.78
2023-03-06T05:52:29.497Z,4.10
2023-03-06T05:57:51.682Z,4.32
2023-03-06T06:03:12.303Z,3.97
2023-03-06T06:08:32.979Z,4.25
2023-03-06T06:13:53.739Z,4.30
2023-03-06T06:19:18.766Z,3.65
2023-03-06T06:24:39.793Z,4.43
2023-03-06T06:30:00.423Z,5.13
2023-03-06T06:35:21.252Z,4.57
2023-03-06T06:40:42.550Z,4.35
2023-03-06T06:46:31.443Z,5.28
2023-03-06T06:51:45.096Z,4.63
2023-03-06T06:57:05.853Z,5.32
2023-03-06T07:02:26.742Z,4.82
2023-03-06T07:07:47.463Z,5.45
2023-03-06T07:13:08.096Z,4.60
2023-03-06T07:18:29.117Z,5.88
2023-03-06T07:23:50.412Z,4.43
2023-03-06T07:29:11.153Z,5.38
2023-03-06T07:34:31.926Z,4.80
2023-03-06T07:39:52.647Z,6.20
2023-03-06T07:45:13.795Z,5.72
2023-03-06T07:50:35.125Z,4.18
2023-03-06T07:55:56.533Z,5.20
2023-03-06T08:01:20.041Z,5.32
2023-03-06T08:06:40.927Z,5.57
2023-03-06T08:12:02.288Z,6.43
2023-03-06T08:17:22.924Z,5.13
2023-03-06T08:22:43.575Z,5.15
2023-03-06T08:28:04.358Z,5.00
2023-03-06T08:33:25.547Z,4.55
2023-03-06T08:38:46.470Z,5.82
2023-03-06T08:44:07.191Z,5.63
2023-03-06T08:49:27.910Z,4.55
2023-03-06T08:54:48.625Z,6.50
2023-03-06T09:00:10.941Z,5.18
2023-03-06T09:05:32.341Z,6.07
2023-03-06T09:10:53.212Z,6.28
2023-03-06T09:16:13.956Z,5.50
2023-03-06T09:21:34.775Z,5.65
2023-03-06T09:26:55.504Z,6.13
2023-03-06T09:32:16.300Z,5.75
2023-03-06T09:37:37.196Z,5.38
2023-03-06T09:42:58.081Z,5.50
2023-03-06T09:48:28.436Z,5.28
2023-03-06T09:54:13.855Z,5.18
2023-03-06T09:59:34.765Z,4.97
2023-03-06T10:05:04.097Z,5.80
2023-03-06T10:10:28.405Z,5.13
2023-03-06T10:15:50.265Z,4.43
2023-03-06T10:21:26.439Z,5.05
2023-03-06T10:26:58.319Z,5.35
2023-03-06T10:32:47.649Z,4.20
2023-03-06T10:38:32.269Z,5.03
2023-03-06T10:44:05.316Z,4.70
2023-03-06T10:49:36.812Z,3.60
2023-03-06T10:55:37.759Z,4.20
2023-03-06T11:01:03.577Z,4.38
2023-03-06T11:06:37.055Z,4.72
2023-03-06T11:12:38.098Z,3.75
2023-03-06T11:18:08.802Z,3.88
2023-03-06T11:23:46.582Z,4.18
2023-03-06T11:29:12.172Z,3.10
2023-03-06T11:35:04.460Z,4.53
2023-03-06T11:40:33.821Z,3.55
2023-03-06T11:46:12.074Z,3.60
2023-03-06T11:51:38.153Z,3.40
2023-03-06T11:57:06.940Z,2.97
2023-03-06T12:02:57.238Z,3.60
2023-03-06T12:08:36.415Z,2.92
2023-03-06T12:14:13.833Z,3.78
2023-03-06T12:19:40.518Z,3.83
2023-03-06T12:25:17.376Z,3.15
2023-03-06T12:30:49.487Z,3.58
2023-03-06T12:36:28.773Z,3.85
2023-03-06T12:42:48.644Z,3.78
2023-03-06T12:48:20.572Z,3.40
2023-03-06T12:53:42.661Z,4.43
2023-03-06T12:59:03.597Z,4.30
2023-03-06T13:04:52.500Z,3.65
2023-03-06T13:10:25.408Z,4.32
2023-03-06T13:16:09.946Z,4.32
2023-03-06T13:21:47.631Z,3.78
2023-03-06T13:27:11.683Z,4.20
2023-03-06T13:32:34.101Z,3.47
2023-03-06T13:37:54.922Z,4.05
2023-03-06T13:43:21.495Z,4.05
2023-03-06T13:48:45.796Z,3.85
2023-03-06T13:54:10.034Z,5.10
2023-03-06T14:00:03.107Z,4.13
2023-03-06T14:05:52.852Z,5.43
2023-03-06T14:11:21.201Z,5.13
2023-03-06T14:16:50.547Z,4.30
2023-03-06T14:22:23.085Z,4.80
2023-03-06T14:27:52.540Z,3.47
2023-03-06T14:33:13.245Z,4.50
2023-03-06T14:38:42.323Z,4.55
2023-03-06T14:44:21.785Z,4.00
2023-03-06T14:49:42.767Z,4.40
2023-03-06T14:55:09.675Z,3.88
2023-03-06T15:00:38.127Z,3.78
2023-03-06T15:05:59.516Z,3.40
2023-03-06T15:11:20.192Z,3.80
2023-03-06T15:16:41.025Z,3.80
2023-03-06T15:22:01.849Z,4.10
2023-03-06T15:27:30.330Z,3.30
2023-03-06T15:32:51.786Z,3.72
2023-03-06T15:38:42.218Z,3.63
2023-03-06T15:44:11.424Z,4.60
2023-03-06T15:49:32.210Z,4.05
2023-03-06T15:54:53.074Z,4.78
2023-03-06T16:00:27.299Z,5.07
2023-03-06T16:05:48.531Z,4.95
2023-03-06T16:11:32.555Z,4.97
2023-03-06T16:16:56.907Z,5.60
2023-03-06T16:22:17.880Z,4.80
2023-03-06T16:27:38.686Z,6.25
2023-03-06T16:33:00.226Z,5.20
2023-03-06T16:38:21.132Z,4.88
2023-03-06T16:43:41.871Z,3.90
2023-03-06T16:49:02.539Z,4.68
2023-03-06T16:54:26.181Z,4.75
2023-03-06T16:59:47.385Z,4.65
2023-03-06T17:05:09.843Z,4.70
2023-03-06T17:10:31.202Z,7.50
2023-03-06T17:15:59.506Z,6.47
2023-03-06T17:21:20.569Z,8.52
2023-03-06T17:26:41.405Z,7.93
2023-03-06T17:32:02.372Z,7.43
2023-03-06T17:37:23.337Z,7.07
2023-03-06T17:42:43.976Z,6.90
2023-03-06T17:48:04.889Z,5.50
2023-03-06T17:53:26.731Z,6.88
2023-03-06T17:58:47.743Z,7.68
2023-03-06T18:04:08.582Z,7.78
2023-03-06T18:09:29.469Z,7.53
2023-03-06T18:14:50.832Z,7.55
2023-03-06T18:20:12.258Z,8.00
2023-03-06T18:25:33.713Z,7.15
2023-03-06T18:30:54.789Z,7.68
2023-03-06T18:36:16.091Z,7.18
2023-03-06T18:41:37.667Z,7.53
2023-03-06T18:46:58.620Z,6.75
2023-03-06T18:52:19.593Z,6.82
2023-03-06T18:57:40.929Z,6.30
2023-03-06T19:03:01.775Z,6.70
2023-03-06T19:08:22.443Z,6.53
2023-03-06T19:13:43.440Z,7.47
2023-03-06T19:19:04.558Z,6.95
2023-03-06T19:24:25.299Z,6.90
2023-03-06T19:29:46.018Z,7.68
2023-03-06T19:35:07.013Z,7.30
2023-03-06T19:40:28.213Z,7.28
2023-03-06T19:45:49.030Z,7.20
2023-03-06T19:51:10.631Z,6.80
2023-03-06T19:56:33.816Z,7.72
2023-03-06T20:01:54.989Z,7.68
2023-03-06T20:07:15.799Z,8.38
2023-03-06T20:12:36.659Z,8.00
2023-03-06T20:17:57.424Z,7.85
2023-03-06T20:23:19.129Z,8.48
2023-03-06T20:28:42.165Z,5.93
2023-03-06T20:34:05.415Z,6.88
2023-03-06T20:39:26.108Z,6.65
2023-03-06T20:44:47.242Z,7.43
2023-03-06T20:50:08.539Z,7.93
2023-03-06T20:55:29.342Z,6.03
2023-03-06T21:00:50.066Z,7.47
2023-03-06T21:06:10.693Z,6.70
2023-03-06T21:11:31.475Z,6.32
2023-03-06T21:16:52.162Z,6.78
2023-03-06T21:22:13.791Z,6.55
2023-03-06T21:27:34.564Z,6.63
2023-03-06T21:32:55.718Z,6.88
2023-03-06T21:38:17.029Z,7.63
2023-03-06T21:43:38.927Z,7.75
2023-03-06T21:49:01.602Z,6.93
2023-03-06T21:54:22.947Z,6.38
2023-03-06T21:59:43.596Z,8.27
2023-03-06T22:05:04.807Z,7.68
2023-03-06T22:10:25.699Z,8.38
2023-03-06T22:15:50.800Z,8.55
2023-03-06T22:21:14.661Z,8.02
2023-03-06T22:26:35.519Z,7.97
2023-03-06T22:31:56.299Z,8.15
2023-03-06T22:37:17.206Z,8.23
2023-03-06T22:42:37.765Z,8.13
2023-03-06T22:48:10.144Z,7.72
2023-03-06T22:53:32.707Z,8.13
2023-03-06T22:58:53.833Z,7.32
2023-03-06T23:04:14.715Z,8.98
2023-03-06T23:09:35.325Z,7.47
2023-03-06T23:15:14.635Z,5.85
2023-03-06T23:20:54.113Z,8.45
2023-03-06T23:26:34.488Z,8.07
2023-03-06T23:31:55.457Z,7.72
2023-03-06T23:37:16.050Z,8.10
2023-03-06T23:42:37.392Z,8.00
2023-03-06T23:47:58.272Z,7.88
2023-03-06T23:53:19.700Z,8.02
2023-03-06T23:58:40.927Z,8.65
